sensor_id;sensor_type;location;lat;lon;timestamp;pressure;altitude;pressure_sealevel;temperature;humidity
73085;BME280;62974;49.460;10.892;2024-03-29T00:01:00;96321.00;;;4.77;100.00
73085;BME280;62974;49.460;10.892;2024-03-29T00:03:26;96319.13;;;4.64;100.00
73085;BME280;62974;49.460;10.892;2024-03-29T00:05:52;96322.09;;;5.15;100.00
73085;BME280;62974;49.460;10.892;2024-03-29T00:08:18;96331.69;;;4.96;100.00
73085;BME280;62974;49.460;10.892;2024-03-29T00:10:47;96325.78;;;5.27;100.00
73085;BME280;62974;49.460;10.892;2024-03-29T00:13:13;96320.44;;;5.14;100.00
73085;BME280;62974;49.460;10.892;2024-03-29T00:15:39;96321.19;;;4.68;100.00
73085;BME280;62974;49.460;10.892;2024-03-29T00:18:06;96307.09;;;4.81;100.00
73085;BME280;62974;49.460;10.892;2024-03-29T00:20:31;96302.84;;;4.93;100.00
73085;BME280;62974;49.460;10.892;2024-03-29T00:22:57;96305.09;;;5.22;100.00
73085;BME280;62974;49.460;10.892;2024-03-29T00:25:23;96303.63;;;4.87;100.00
73085;BME280;62974;49.460;10.892;2024-03-29T00:27:50;96298.38;;;5.13;100.00
73085;BME280;62974;49.460;10.892;2024-03-29T00:30:17;96306.34;;;5.33;100.00
73085;BME280;62974;49.460;10.892;2024-03-29T00:32:42;96310.44;;;5.36;100.00
73085;BME280;62974;49.460;10.892;2024-03-29T00:35:08;96303.88;;;5.05;100.00
73085;BME280;62974;49.460;10.892;2024-03-29T00:37:34;96309.81;;;5.01;100.00
73085;BME280;62974;49.460;10.892;2024-03-29T00:40:00;96301.00;;;5.07;100.00
73085;BME280;62974;49.460;10.892;2024-03-29T00:42:26;96293.63;;;4.96;100.00
73085;BME280;62974;49.460;10.892;2024-03-29T00:44:53;96286.44;;;4.90;100.00
73085;BME280;62974;49.460;10.892;2024-03-29T00:47:19;96279.72;;;5.07;100.00
73085;BME280;62974;49.460;10.892;2024-03-29T00:49:45;96267.81;;;4.90;100.00
73085;BME280;62974;49.460;10.892;2024-03-29T00:52:11;96272.38;;;5.09;100.00
73085;BME280;62974;49.460;10.892;2024-03-29T00:54:36;96262.34;;;5.04;100.00
73085;BME280;62974;49.460;10.892;2024-03-29T00:57:03;96256.81;;;5.19;100.00
73085;BME280;62974;49.460;10.892;2024-03-29T00:59:29;96237.13;;;4.94;100.00
73085;BME280;62974;49.460;10.892;2024-03-29T01:01:56;96239.41;;;5.16;100.00
73085;BME280;62974;49.460;10.892;2024-03-29T01:04:22;96227.13;;;5.15;100.00
73085;BME280;62974;49.460;10.892;2024-03-29T01:06:48;96214.22;;;5.26;100.00
73085;BME280;62974;49.460;10.892;2024-03-29T01:09:14;96218.53;;;5.00;100.00
73085;BME280;62974;49.460;10.892;2024-03-29T01:11:40;96219.56;;;4.93;100.00
73085;BME280;62974;49.460;10.892;2024-03-29T01:14:06;96224.88;;;4.86;100.00
73085;BME280;62974;49.460;10.892;2024-03-29T01:16:32;96216.28;;;5.17;100.00
73085;BME280;62974;49.460;10.892;2024-03-29T01:19:00;96213.41;;;5.25;100.00
73085;BME280;62974;49.460;10.892;2024-03-29T01:21:26;96225.28;;;5.22;100.00
73085;BME280;62974;49.460;10.892;2024-03-29T01:23:53;96224.25;;;5.37;100.00
73085;BME280;62974;49.460;10.892;2024-03-29T01:26:19;96210.97;;;4.84;100.00
73085;BME280;62974;49.460;10.892;2024-03-29T01:28:45;96217.31;;;5.16;100.00
73085;BME280;62974;49.460;10.892;2024-03-29T01:31:11;96223.66;;;5.28;100.00
73085;BME280;62974;49.460;10.892;2024-03-29T01:33:37;96226.13;;;5.16;100.00
73085;BME280;62974;49.460;10.892;2024-03-29T01:36:05;96226.91;;;5.30;100.00
73085;BME280;62974;49.460;10.892;2024-03-29T01:38:32;96224.88;;;4.73;100.00
73085;BME280;62974;49.460;10.892;2024-03-29T01:40:58;96219.34;;;4.94;100.00
73085;BME280;62974;49.460;10.892;2024-03-29T01:43:24;96203.41;;;5.01;100.00
73085;BME280;62974;49.460;10.892;2024-03-29T01:45:55;96203.19;;;5.29;100.00
73085;BME280;62974;49.460;10.892;2024-03-29T01:48:22;96219.13;;;5.35;100.00
73085;BME280;62974;49.460;10.892;2024-03-29T01:50:51;96210.53;;;5.27;100.00
73085;BME280;62974;49.460;10.892;2024-03-29T01:53:21;96195.00;;;5.24;100.00
73085;BME280;62974;49.460;10.892;2024-03-29T01:55:48;96207.69;;;5.15;100.00
73085;BME280;62974;49.460;10.892;2024-03-29T01:58:15;96200.53;;;5.02;100.00
73085;BME280;62974;49.460;10.892;2024-03-29T02:00:58;96195.63;;;4.86;100.00
73085;BME280;62974;49.460;10.892;2024-03-29T02:03:26;96191.50;;;5.30;100.00
73085;BME280;62974;49.460;10.892;2024-03-29T02:05:54;96186.38;;;5.28;100.00
73085;BME280;62974;49.460;10.892;2024-03-29T02:08:24;96181.31;;;5.13;100.00
73085;BME280;62974;49.460;10.892;2024-03-29T02:10:51;96181.69;;;5.37;100.00
73085;BME280;62974;49.460;10.892;2024-03-29T02:13:17;96188.63;;;5.18;100.00
73085;BME280;62974;49.460;10.892;2024-03-29T02:15:44;96185.16;;;5.37;100.00
73085;BME280;62974;49.460;10.892;2024-03-29T02:18:11;96189.25;;;5.27;100.00
73085;BME280;62974;49.460;10.892;2024-03-29T02:20:38;96191.94;;;5.20;100.00
73085;BME280;62974;49.460;10.892;2024-03-29T02:23:07;96189.84;;;5.35;100.00
73085;BME280;62974;49.460;10.892;2024-03-29T02:25:37;96179.44;;;5.07;100.00
73085;BME280;62974;49.460;10.892;2024-03-29T02:28:05;96162.88;;;4.99;100.00
73085;BME280;62974;49.460;10.892;2024-03-29T02:30:32;96171.44;;;5.14;100.00
73085;BME280;62974;49.460;10.892;2024-03-29T02:32:59;96181.06;;;5.28;100.00
73085;BME280;62974;49.460;10.892;2024-03-29T02:35:27;96178.41;;;5.02;100.00
73085;BME280;62974;49.460;10.892;2024-03-29T02:37:54;96159.41;;;5.11;100.00
73085;BME280;62974;49.460;10.892;2024-03-29T02:40:21;96161.47;;;5.09;100.00
73085;BME280;62974;49.460;10.892;2024-03-29T02:42:49;96165.72;;;5.10;100.00
73085;BME280;62974;49.460;10.892;2024-03-29T02:45:16;96159.56;;;5.30;100.00
73085;BME280;62974;49.460;10.892;2024-03-29T02:47:43;96163.47;;;5.27;100.00
73085;BME280;62974;49.460;10.892;2024-03-29T02:50:13;96158.53;;;5.31;100.00
73085;BME280;62974;49.460;10.892;2024-03-29T02:52:39;96154.69;;;5.13;100.00
73085;BME280;62974;49.460;10.892;2024-03-29T02:55:07;96159.81;;;5.02;100.00
73085;BME280;62974;49.460;10.892;2024-03-29T02:57:32;96160.59;;;5.29;100.00
73085;BME280;62974;49.460;10.892;2024-03-29T03:00:01;96164.91;;;5.10;100.00
73085;BME280;62974;49.460;10.892;2024-03-29T03:02:26;96154.25;;;5.10;100.00
73085;BME280;62974;49.460;10.892;2024-03-29T03:04:53;96140.97;;;5.10;100.00
73085;BME280;62974;49.460;10.892;2024-03-29T03:07:19;96151.19;;;5.19;100.00
73085;BME280;62974;49.460;10.892;2024-03-29T03:10:04;96144.59;;;5.35;100.00
73085;BME280;62974;49.460;10.892;2024-03-29T03:12:49;96144.44;;;5.24;100.00
73085;BME280;62974;49.460;10.892;2024-03-29T03:15:17;96136.47;;;5.10;100.00
73085;BME280;62974;49.460;10.892;2024-03-29T03:17:44;96118.44;;;5.19;100.00
73085;BME280;62974;49.460;10.892;2024-03-29T03:20:10;96122.31;;;5.36;100.00
73085;BME280;62974;49.460;10.892;2024-03-29T03:22:39;96125.59;;;5.18;100.00
73085;BME280;62974;49.460;10.892;2024-03-29T03:25:05;96135.19;;;5.39;100.00
73085;BME280;62974;49.460;10.892;2024-03-29T03:27:32;96134.22;;;5.14;100.00
73085;BME280;62974;49.460;10.892;2024-03-29T03:29:58;96129.91;;;5.19;100.00
73085;BME280;62974;49.460;10.892;2024-03-29T03:32:26;96145.66;;;5.14;100.00
73085;BME280;62974;49.460;10.892;2024-03-29T03:34:52;96144.63;;;5.29;100.00
73085;BME280;62974;49.460;10.892;2024-03-29T03:37:19;96147.53;;;5.20;100.00
73085;BME280;62974;49.460;10.892;2024-03-29T03:39:45;96140.94;;;5.30;100.00
73085;BME280;62974;49.460;10.892;2024-03-29T03:42:11;96140.09;;;5.36;100.00
73085;BME280;62974;49.460;10.892;2024-03-29T03:44:37;96146.03;;;5.38;100.00
73085;BME280;62974;49.460;10.892;2024-03-29T03:47:04;96163.63;;;5.39;100.00
73085;BME280;62974;49.460;10.892;2024-03-29T03:49:31;96161.00;;;5.32;100.00
73085;BME280;62974;49.460;10.892;2024-03-29T03:51:58;96165.69;;;5.43;100.00
73085;BME280;62974;49.460;10.892;2024-03-29T03:54:24;96163.25;;;5.35;100.00
73085;BME280;62974;49.460;10.892;2024-03-29T03:56:51;96167.31;;;5.38;100.00
73085;BME280;62974;49.460;10.892;2024-03-29T03:59:17;96167.53;;;5.49;100.00
73085;BME280;62974;49.460;10.892;2024-03-29T04:01:43;96164.25;;;5.34;100.00
73085;BME280;62974;49.460;10.892;2024-03-29T04:04:12;96160.16;;;5.38;100.00
73085;BME280;62974;49.460;10.892;2024-03-29T04:06:40;96168.13;;;5.51;100.00
73085;BME280;62974;49.460;10.892;2024-03-29T04:09:06;96152.56;;;5.42;100.00
73085;BME280;62974;49.460;10.892;2024-03-29T04:11:34;96154.59;;;5.46;100.00
73085;BME280;62974;49.460;10.892;2024-03-29T04:13:59;96156.44;;;5.46;100.00
73085;BME280;62974;49.460;10.892;2024-03-29T04:16:26;96149.91;;;5.48;100.00
73085;BME280;62974;49.460;10.892;2024-03-29T04:18:52;96156.66;;;5.51;100.00
73085;BME280;62974;49.460;10.892;2024-03-29T04:21:19;96146.44;;;5.48;100.00
73085;BME280;62974;49.460;10.892;2024-03-29T04:23:46;96164.44;;;5.52;100.00
73085;BME280;62974;49.460;10.892;2024-03-29T04:26:13;96136.19;;;5.45;100.00
73085;BME280;62974;49.460;10.892;2024-03-29T04:28:39;96163.81;;;5.50;100.00
73085;BME280;62974;49.460;10.892;2024-03-29T04:31:06;96166.50;;;5.44;100.00
73085;BME280;62974;49.460;10.892;2024-03-29T04:33:31;96163.63;;;5.52;100.00
73085;BME280;62974;49.460;10.892;2024-03-29T04:36:01;96176.06;;;5.58;100.00
73085;BME280;62974;49.460;10.892;2024-03-29T04:38:27;96190.19;;;5.58;100.00
73085;BME280;62974;49.460;10.892;2024-03-29T04:40:57;96202.06;;;5.62;100.00
73085;BME280;62974;49.460;10.892;2024-03-29T04:43:26;96174.84;;;5.60;100.00
73085;BME280;62974;49.460;10.892;2024-03-29T04:46:01;96175.69;;;5.61;100.00
73085;BME280;62974;49.460;10.892;2024-03-29T04:48:29;96194.91;;;5.63;100.00
73085;BME280;62974;49.460;10.892;2024-03-29T04:50:56;96209.44;;;5.67;100.00
73085;BME280;62974;49.460;10.892;2024-03-29T04:53:23;96188.56;;;5.64;100.00
73085;BME280;62974;49.460;10.892;2024-03-29T04:55:53;96207.41;;;5.69;100.00
73085;BME280;62974;49.460;10.892;2024-03-29T04:58:22;96219.50;;;5.65;100.00
73085;BME280;62974;49.460;10.892;2024-03-29T05:00:49;96212.28;;;5.65;100.00
73085;BME280;62974;49.460;10.892;2024-03-29T05:03:17;96217.22;;;5.68;100.00
73085;BME280;62974;49.460;10.892;2024-03-29T05:05:44;96230.53;;;5.68;100.00
73085;BME280;62974;49.460;10.892;2024-03-29T05:08:11;96244.69;;;5.69;100.00
73085;BME280;62974;49.460;10.892;2024-03-29T05:10:39;96215.38;;;5.62;100.00
73085;BME280;62974;49.460;10.892;2024-03-29T05:13:06;96227.88;;;5.68;100.00
73085;BME280;62974;49.460;10.892;2024-03-29T05:15:34;96212.91;;;5.81;100.00
73085;BME280;62974;49.460;10.892;2024-03-29T05:18:01;96218.81;;;5.83;100.00
73085;BME280;62974;49.460;10.892;2024-03-29T05:20:29;96254.69;;;5.80;100.00
73085;BME280;62974;49.460;10.892;2024-03-29T05:22:56;96233.38;;;5.80;100.00
73085;BME280;62974;49.460;10.892;2024-03-29T05:25:23;96285.63;;;5.81;100.00
73085;BME280;62974;49.460;10.892;2024-03-29T05:27:49;96253.22;;;5.97;100.00
73085;BME280;62974;49.460;10.892;2024-03-29T05:30:16;96284.78;;;5.94;100.00
73085;BME280;62974;49.460;10.892;2024-03-29T05:32:45;96266.34;;;5.99;100.00
73085;BME280;62974;49.460;10.892;2024-03-29T05:35:12;96246.25;;;6.03;100.00
73085;BME280;62974;49.460;10.892;2024-03-29T05:37:39;96243.09;;;6.19;100.00
73085;BME280;62974;49.460;10.892;2024-03-29T05:40:07;96230.22;;;6.09;100.00
73085;BME280;62974;49.460;10.892;2024-03-29T05:42:34;96211.75;;;6.14;100.00
73085;BME280;62974;49.460;10.892;2024-03-29T05:45:04;96232.66;;;6.18;100.00
73085;BME280;62974;49.460;10.892;2024-03-29T05:47:33;96235.97;;;6.06;100.00
73085;BME280;62974;49.460;10.892;2024-03-29T05:50:02;96229.41;;;6.16;100.00
73085;BME280;62974;49.460;10.892;2024-03-29T05:52:28;96217.03;;;6.21;100.00
73085;BME280;62974;49.460;10.892;2024-03-29T05:54:55;96215.03;;;6.17;100.00
73085;BME280;62974;49.460;10.892;2024-03-29T05:57:22;96220.38;;;6.17;100.00
73085;BME280;62974;49.460;10.892;2024-03-29T05:59:55;96222.59;;;6.20;100.00
73085;BME280;62974;49.460;10.892;2024-03-29T06:02:21;96244.53;;;6.22;100.00
73085;BME280;62974;49.460;10.892;2024-03-29T06:04:48;96254.16;;;6.23;100.00
73085;BME280;62974;49.460;10.892;2024-03-29T06:07:17;96239.19;;;6.28;100.00
73085;BME280;62974;49.460;10.892;2024-03-29T06:09:44;96250.91;;;6.21;100.00
73085;BME280;62974;49.460;10.892;2024-03-29T06:12:11;96255.81;;;6.24;100.00
73085;BME280;62974;49.460;10.892;2024-03-29T06:14:38;96247.56;;;6.32;100.00
73085;BME280;62974;49.460;10.892;2024-03-29T06:17:22;96252.50;;;6.28;100.00
73085;BME280;62974;49.460;10.892;2024-03-29T06:19:49;96272.59;;;6.31;100.00
73085;BME280;62974;49.460;10.892;2024-03-29T06:22:17;96240.16;;;6.34;100.00
73085;BME280;62974;49.460;10.892;2024-03-29T06:24:44;96280.78;;;6.29;100.00
73085;BME280;62974;49.460;10.892;2024-03-29T06:27:12;96250.44;;;6.30;100.00
73085;BME280;62974;49.460;10.892;2024-03-29T06:29:41;96262.31;;;6.34;100.00
73085;BME280;62974;49.460;10.892;2024-03-29T06:32:08;96288.38;;;6.32;100.00
73085;BME280;62974;49.460;10.892;2024-03-29T06:34:35;96276.88;;;6.32;100.00
73085;BME280;62974;49.460;10.892;2024-03-29T06:37:02;96258.63;;;6.35;100.00
73085;BME280;62974;49.460;10.892;2024-03-29T06:39:31;96240.78;;;6.36;100.00
73085;BME280;62974;49.460;10.892;2024-03-29T06:41:58;96233.59;;;6.36;100.00
73085;BME280;62974;49.460;10.892;2024-03-29T06:44:25;96224.78;;;6.36;100.00
73085;BME280;62974;49.460;10.892;2024-03-29T06:46:52;96211.47;;;6.36;100.00
73085;BME280;62974;49.460;10.892;2024-03-29T06:49:19;96223.78;;;6.37;100.00
73085;BME280;62974;49.460;10.892;2024-03-29T06:51:46;96224.75;;;6.42;100.00
73085;BME280;62974;49.460;10.892;2024-03-29T06:54:13;96221.63;;;6.52;100.00
73085;BME280;62974;49.460;10.892;2024-03-29T06:56:41;96228.19;;;6.49;100.00
73085;BME280;62974;49.460;10.892;2024-03-29T06:59:08;96210.72;;;6.53;100.00
73085;BME280;62974;49.460;10.892;2024-03-29T07:01:34;96207.44;;;6.58;100.00
73085;BME280;62974;49.460;10.892;2024-03-29T07:04:01;96199.34;;;6.71;100.00
73085;BME280;62974;49.460;10.892;2024-03-29T07:06:28;96188.19;;;6.81;100.00
73085;BME280;62974;49.460;10.892;2024-03-29T07:08:55;96177.09;;;6.84;100.00
73085;BME280;62974;49.460;10.892;2024-03-29T07:11:22;96188.16;;;6.87;100.00
73085;BME280;62974;49.460;10.892;2024-03-29T07:13:50;96183.78;;;7.18;100.00
73085;BME280;62974;49.460;10.892;2024-03-29T07:16:17;96190.38;;;7.15;100.00
73085;BME280;62974;49.460;10.892;2024-03-29T07:18:44;96186.44;;;7.18;100.00
73085;BME280;62974;49.460;10.892;2024-03-29T07:21:10;96177.09;;;7.51;100.00
73085;BME280;62974;49.460;10.892;2024-03-29T07:23:37;96201.59;;;7.24;100.00
73085;BME280;62974;49.460;10.892;2024-03-29T07:26:05;96180.63;;;7.45;100.00
73085;BME280;62974;49.460;10.892;2024-03-29T07:28:32;96177.84;;;7.59;100.00
73085;BME280;62974;49.460;10.892;2024-03-29T07:31:05;96175.09;;;7.65;100.00
73085;BME280;62974;49.460;10.892;2024-03-29T07:33:33;96174.66;;;7.68;100.00
73085;BME280;62974;49.460;10.892;2024-03-29T07:36:00;96182.16;;;7.60;100.00
73085;BME280;62974;49.460;10.892;2024-03-29T07:38:27;96217.91;;;7.59;100.00
73085;BME280;62974;49.460;10.892;2024-03-29T07:40:54;96216.50;;;7.74;100.00
73085;BME280;62974;49.460;10.892;2024-03-29T07:43:21;96193.38;;;7.86;100.00
73085;BME280;62974;49.460;10.892;2024-03-29T07:45:49;96193.72;;;7.90;100.00
73085;BME280;62974;49.460;10.892;2024-03-29T07:48:17;96201.47;;;7.80;100.00
73085;BME280;62974;49.460;10.892;2024-03-29T07:50:45;96252.88;;;7.75;100.00
73085;BME280;62974;49.460;10.892;2024-03-29T07:53:12;96235.63;;;7.96;100.00
73085;BME280;62974;49.460;10.892;2024-03-29T07:55:40;96234.19;;;8.12;100.00
73085;BME280;62974;49.460;10.892;2024-03-29T07:58:07;96230.91;;;8.10;100.00
73085;BME280;62974;49.460;10.892;2024-03-29T08:00:39;96213.19;;;8.33;100.00
73085;BME280;62974;49.460;10.892;2024-03-29T08:03:06;96203.09;;;8.35;100.00
73085;BME280;62974;49.460;10.892;2024-03-29T08:05:34;96188.63;;;8.55;100.00
73085;BME280;62974;49.460;10.892;2024-03-29T08:08:02;96180.19;;;8.81;100.00
73085;BME280;62974;49.460;10.892;2024-03-29T08:10:30;96172.44;;;8.91;100.00
73085;BME280;62974;49.460;10.892;2024-03-29T08:12:57;96181.47;;;8.78;100.00
73085;BME280;62974;49.460;10.892;2024-03-29T08:15:23;96184.47;;;9.35;100.00
73085;BME280;62974;49.460;10.892;2024-03-29T08:17:51;96173.28;;;9.61;100.00
73085;BME280;62974;49.460;10.892;2024-03-29T08:20:17;96162.91;;;9.53;100.00
73085;BME280;62974;49.460;10.892;2024-03-29T08:22:46;96159.19;;;9.54;100.00
73085;BME280;62974;49.460;10.892;2024-03-29T08:25:13;96169.09;;;9.54;100.00
73085;BME280;62974;49.460;10.892;2024-03-29T08:27:40;96165.13;;;9.33;100.00
73085;BME280;62974;49.460;10.892;2024-03-29T08:30:07;96171.44;;;9.38;100.00
73085;BME280;62974;49.460;10.892;2024-03-29T08:32:35;96155.34;;;9.50;100.00
73085;BME280;62974;49.460;10.892;2024-03-29T08:35:01;96152.97;;;9.77;100.00
73085;BME280;62974;49.460;10.892;2024-03-29T08:37:28;96154.88;;;9.18;100.00
73085;BME280;62974;49.460;10.892;2024-03-29T08:39:57;96143.09;;;9.08;100.00
73085;BME280;62974;49.460;10.892;2024-03-29T08:42:24;96138.91;;;9.12;100.00
73085;BME280;62974;49.460;10.892;2024-03-29T08:44:51;96161.72;;;8.91;100.00
73085;BME280;62974;49.460;10.892;2024-03-29T08:47:18;96171.16;;;8.93;100.00
73085;BME280;62974;49.460;10.892;2024-03-29T08:49:45;96179.66;;;8.90;100.00
73085;BME280;62974;49.460;10.892;2024-03-29T08:52:12;96195.91;;;8.77;100.00
73085;BME280;62974;49.460;10.892;2024-03-29T08:54:40;96209.22;;;8.95;100.00
73085;BME280;62974;49.460;10.892;2024-03-29T08:57:09;96234.53;;;8.81;100.00
73085;BME280;62974;49.460;10.892;2024-03-29T08:59:36;96244.03;;;8.66;100.00
73085;BME280;62974;49.460;10.892;2024-03-29T09:02:04;96266.66;;;8.52;100.00
73085;BME280;62974;49.460;10.892;2024-03-29T09:04:32;96275.19;;;8.42;100.00
73085;BME280;62974;49.460;10.892;2024-03-29T09:07:00;96271.66;;;8.30;100.00
73085;BME280;62974;49.460;10.892;2024-03-29T09:09:29;96279.28;;;8.26;100.00
73085;BME280;62974;49.460;10.892;2024-03-29T09:11:56;96283.88;;;8.19;100.00
73085;BME280;62974;49.460;10.892;2024-03-29T09:14:24;96276.81;;;8.07;100.00
73085;BME280;62974;49.460;10.892;2024-03-29T09:16:51;96282.97;;;8.07;100.00
73085;BME280;62974;49.460;10.892;2024-03-29T09:19:18;96292.66;;;8.08;100.00
73085;BME280;62974;49.460;10.892;2024-03-29T09:21:45;96281.34;;;8.06;100.00
73085;BME280;62974;49.460;10.892;2024-03-29T09:24:12;96245.50;;;7.95;100.00
73085;BME280;62974;49.460;10.892;2024-03-29T09:26:38;96224.63;;;8.04;100.00
73085;BME280;62974;49.460;10.892;2024-03-29T09:29:06;96212.13;;;7.98;100.00
73085;BME280;62974;49.460;10.892;2024-03-29T09:31:35;96208.81;;;8.02;100.00
73085;BME280;62974;49.460;10.892;2024-03-29T09:34:02;96210.88;;;8.00;100.00
73085;BME280;62974;49.460;10.892;2024-03-29T09:36:29;96197.13;;;7.97;100.00
73085;BME280;62974;49.460;10.892;2024-03-29T09:38:55;96216.97;;;8.08;100.00
73085;BME280;62974;49.460;10.892;2024-03-29T09:41:25;96207.59;;;8.17;100.00
73085;BME280;62974;49.460;10.892;2024-03-29T09:43:54;96212.94;;;8.17;100.00
73085;BME280;62974;49.460;10.892;2024-03-29T09:46:25;96163.09;;;8.22;100.00
73085;BME280;62974;49.460;10.892;2024-03-29T09:48:55;96160.56;;;8.27;100.00
73085;BME280;62974;49.460;10.892;2024-03-29T09:51:24;96164.69;;;8.30;100.00
73085;BME280;62974;49.460;10.892;2024-03-29T09:53:51;96159.94;;;8.32;100.00
73085;BME280;62974;49.460;10.892;2024-03-29T09:56:18;96171.56;;;8.37;100.00
73085;BME280;62974;49.460;10.892;2024-03-29T09:58:45;96183.53;;;8.35;100.00
73085;BME280;62974;49.460;10.892;2024-03-29T10:01:12;96172.47;;;8.31;100.00
73085;BME280;62974;49.460;10.892;2024-03-29T10:03:40;96162.50;;;8.38;100.00
73085;BME280;62974;49.460;10.892;2024-03-29T10:06:10;96143.78;;;8.38;100.00
73085;BME280;62974;49.460;10.892;2024-03-29T10:08:38;96147.19;;;8.45;100.00
73085;BME280;62974;49.460;10.892;2024-03-29T10:11:05;96129.41;;;8.51;100.00
73085;BME280;62974;49.460;10.892;2024-03-29T10:13:32;96143.81;;;8.50;100.00
73085;BME280;62974;49.460;10.892;2024-03-29T10:16:00;96115.06;;;8.45;100.00
73085;BME280;62974;49.460;10.892;2024-03-29T10:18:29;96124.84;;;8.40;100.00
73085;BME280;62974;49.460;10.892;2024-03-29T10:21:00;96113.78;;;8.48;100.00
73085;BME280;62974;49.460;10.892;2024-03-29T10:23:29;96089.63;;;8.43;100.00
73085;BME280;62974;49.460;10.892;2024-03-29T10:25:56;96045.06;;;8.48;100.00
73085;BME280;62974;49.460;10.892;2024-03-29T10:28:23;96031.59;;;8.55;100.00
73085;BME280;62974;49.460;10.892;2024-03-29T10:30:50;95977.06;;;8.68;100.00
73085;BME280;62974;49.460;10.892;2024-03-29T10:33:17;95985.88;;;8.68;100.00
73085;BME280;62974;49.460;10.892;2024-03-29T10:35:44;95935.72;;;8.87;100.00
73085;BME280;62974;49.460;10.892;2024-03-29T10:38:11;95936.44;;;8.82;100.00
73085;BME280;62974;49.460;10.892;2024-03-29T10:40:40;95982.38;;;8.91;100.00
73085;BME280;62974;49.460;10.892;2024-03-29T10:43:08;95945.03;;;8.84;100.00
73085;BME280;62974;49.460;10.892;2024-03-29T10:45:38;95942.25;;;8.79;100.00
73085;BME280;62974;49.460;10.892;2024-03-29T10:48:09;95926.75;;;8.81;100.00
73085;BME280;62974;49.460;10.892;2024-03-29T10:50:37;95911.06;;;8.73;100.00
73085;BME280;62974;49.460;10.892;2024-03-29T10:53:06;95944.13;;;8.79;100.00
73085;BME280;62974;49.460;10.892;2024-03-29T10:55:34;95952.59;;;8.87;100.00
73085;BME280;62974;49.460;10.892;2024-03-29T10:58:04;95954.22;;;8.88;100.00
73085;BME280;62974;49.460;10.892;2024-03-29T11:00:33;95948.84;;;8.88;100.00
73085;BME280;62974;49.460;10.892;2024-03-29T11:03:09;95989.13;;;8.93;100.00
73085;BME280;62974;49.460;10.892;2024-03-29T11:05:45;95986.81;;;8.85;100.00
73085;BME280;62974;49.460;10.892;2024-03-29T11:08:22;95989.94;;;8.82;100.00
73085;BME280;62974;49.460;10.892;2024-03-29T11:10:50;95947.50;;;8.74;100.00
73085;BME280;62974;49.460;10.892;2024-03-29T11:13:23;95945.38;;;8.76;100.00
73085;BME280;62974;49.460;10.892;2024-03-29T11:15:53;95954.56;;;8.69;100.00
73085;BME280;62974;49.460;10.892;2024-03-29T11:18:20;95931.19;;;8.76;100.00
73085;BME280;62974;49.460;10.892;2024-03-29T11:20:50;95920.13;;;8.72;100.00
73085;BME280;62974;49.460;10.892;2024-03-29T11:23:20;95937.25;;;8.71;100.00
73085;BME280;62974;49.460;10.892;2024-03-29T11:25:49;95944.47;;;8.71;100.00
73085;BME280;62974;49.460;10.892;2024-03-29T11:28:26;95963.28;;;8.76;100.00
73085;BME280;62974;49.460;10.892;2024-03-29T11:30:59;95952.97;;;8.79;100.00
73085;BME280;62974;49.460;10.892;2024-03-29T11:33:31;95953.63;;;8.86;100.00
73085;BME280;62974;49.460;10.892;2024-03-29T11:36:00;95965.16;;;8.99;100.00
73085;BME280;62974;49.460;10.892;2024-03-29T11:38:34;95988.75;;;9.02;100.00
73085;BME280;62974;49.460;10.892;2024-03-29T11:41:02;96003.88;;;9.08;100.00
73085;BME280;62974;49.460;10.892;2024-03-29T11:43:31;95994.78;;;9.20;100.00
73085;BME280;62974;49.460;10.892;2024-03-29T11:45:59;96009.94;;;9.15;100.00
73085;BME280;62974;49.460;10.892;2024-03-29T11:48:28;95990.13;;;9.27;100.00
73085;BME280;62974;49.460;10.892;2024-03-29T11:50:55;95996.25;;;9.28;100.00
73085;BME280;62974;49.460;10.892;2024-03-29T11:53:22;96007.94;;;9.22;100.00
73085;BME280;62974;49.460;10.892;2024-03-29T11:55:49;96005.63;;;9.14;100.00
73085;BME280;62974;49.460;10.892;2024-03-29T11:58:19;95998.53;;;9.19;100.00
73085;BME280;62974;49.460;10.892;2024-03-29T12:00:48;96023.22;;;9.10;100.00
73085;BME280;62974;49.460;10.892;2024-03-29T12:03:16;96021.47;;;9.15;100.00
73085;BME280;62974;49.460;10.892;2024-03-29T12:05:44;96006.06;;;9.22;100.00
73085;BME280;62974;49.460;10.892;2024-03-29T12:08:10;95991.72;;;9.28;100.00
73085;BME280;62974;49.460;10.892;2024-03-29T12:10:37;95999.75;;;9.28;100.00
73085;BME280;62974;49.460;10.892;2024-03-29T12:13:05;96002.78;;;9.32;100.00
73085;BME280;62974;49.460;10.892;2024-03-29T12:15:32;96002.66;;;9.38;100.00
73085;BME280;62974;49.460;10.892;2024-03-29T12:18:02;96031.88;;;9.40;100.00
73085;BME280;62974;49.460;10.892;2024-03-29T12:20:30;96046.75;;;9.48;100.00
73085;BME280;62974;49.460;10.892;2024-03-29T12:22:59;96016.81;;;9.62;100.00
73085;BME280;62974;49.460;10.892;2024-03-29T12:25:26;96017.81;;;10.01;100.00
73085;BME280;62974;49.460;10.892;2024-03-29T12:27:53;96052.09;;;9.99;100.00
73085;BME280;62974;49.460;10.892;2024-03-29T12:30:20;96062.06;;;10.15;100.00
73085;BME280;62974;49.460;10.892;2024-03-29T12:32:47;96075.13;;;10.40;100.00
73085;BME280;62974;49.460;10.892;2024-03-29T12:35:16;96069.75;;;10.12;100.00
73085;BME280;62974;49.460;10.892;2024-03-29T12:37:49;96078.56;;;10.52;100.00
73085;BME280;62974;49.460;10.892;2024-03-29T12:40:17;96073.69;;;10.49;100.00
73085;BME280;62974;49.460;10.892;2024-03-29T12:42:48;96062.91;;;11.16;100.00
73085;BME280;62974;49.460;10.892;2024-03-29T12:45:15;96058.66;;;10.98;100.00
73085;BME280;62974;49.460;10.892;2024-03-29T12:47:43;96059.50;;;11.04;100.00
73085;BME280;62974;49.460;10.892;2024-03-29T12:50:13;96081.91;;;11.09;100.00
73085;BME280;62974;49.460;10.892;2024-03-29T12:52:42;96089.44;;;11.29;100.00